Time;durP1;ratioP1;P1;durP2;ratioP2;P2;SDS_P1;SDS_P2;PMS_P1;PMS_P2;Temp;Humidity;BMP_temperature;BMP_pressure;BME280_temperature;BME280_humidity;BME280_pressure;Samples;Min_cycle;Max_cycle;Signal;HPM_P1;HPM_P2
2023/05/12 00:00:15;;;;;;;4.90;4.53;;;;;;;;;;5048459;28;20199;-62
2023/05/12 00:02:48;;;;;;;6.07;5.57;;;;;;;;;;5044135;28;20208;-62
2023/05/12 00:05:17;;;;;;;5.85;5.35;;;;;;;;;;5047724;28;20214;-62
2023/05/12 00:07:53;;;;;;;6.03;5.53;;;;;;;;;;5046889;28;20290;-62
2023/05/12 00:10:24;;;;;;;5.95;5.45;;;;;;;;;;5049080;28;20211;-62
2023/05/12 00:12:54;;;;;;;5.60;5.20;;;;;;;;;;5040634;28;20219;-62
2023/05/12 00:15:22;;;;;;;6.25;5.75;;;;;;;;;;5044845;28;20227;-63
2023/05/12 00:17:51;;;;;;;5.97;5.20;;;;;;;;;;5046359;28;20203;-63
2023/05/12 00:20:26;;;;;;;5.75;5.25;;;;;;;;;;5049436;28;20191;-62
2023/05/12 00:22:53;;;;;;;6.82;6.22;;;;;;;;;;5053640;28;20195;-62
2023/05/12 00:25:20;;;;;;;6.43;5.82;;;;;;;;;;5052704;28;20207;-63
2023/05/12 00:27:48;;;;;;;6.82;5.32;;;;;;;;;;5048404;28;20211;-62
2023/05/12 00:30:15;;;;;;;6.00;5.45;;;;;;;;;;5050899;28;20215;-62
2023/05/12 00:32:42;;;;;;;6.90;5.90;;;;;;;;;;5046747;28;20207;-62
2023/05/12 00:35:11;;;;;;;6.45;5.85;;;;;;;;;;5050672;28;20200;-62
2023/05/12 00:37:38;;;;;;;6.55;5.85;;;;;;;;;;5046454;28;20206;-62
2023/05/12 00:40:05;;;;;;;5.90;5.40;;;;;;;;;;5045263;28;20215;-62
2023/05/12 00:42:34;;;;;;;5.88;5.32;;;;;;;;;;5049802;28;20212;-62
2023/05/12 00:45:01;;;;;;;7.60;6.55;;;;;;;;;;5051163;28;20226;-62
2023/05/12 00:47:29;;;;;;;6.80;6.20;;;;;;;;;;5051534;28;20203;-62
2023/05/12 00:49:56;;;;;;;6.43;5.90;;;;;;;;;;5049901;28;20204;-62
2023/05/12 00:52:24;;;;;;;6.93;6.32;;;;;;;;;;5047303;28;20218;-62
2023/05/12 00:54:51;;;;;;;6.65;6.15;;;;;;;;;;5047414;28;20273;-62
2023/05/12 00:57:19;;;;;;;7.63;6.90;;;;;;;;;;5048479;28;20211;-62
2023/05/12 00:59:46;;;;;;;7.28;6.55;;;;;;;;;;5046686;28;20215;-62
2023/05/12 01:02:13;;;;;;;6.65;5.85;;;;;;;;;;5049408;28;20208;-62
2023/05/12 01:04:40;;;;;;;6.72;6.13;;;;;;;;;;5048439;28;20209;-62
2023/05/12 01:07:10;;;;;;;6.93;6.32;;;;;;;;;;5048599;28;20191;-62
2023/05/12 01:09:39;;;;;;;8.80;7.95;;;;;;;;;;5048929;28;20199;-62
2023/05/12 01:12:06;;;;;;;9.00;8.20;;;;;;;;;;5048562;28;20227;-62
2023/05/12 01:14:33;;;;;;;9.05;8.15;;;;;;;;;;5044144;28;20204;-61
2023/05/12 01:17:02;;;;;;;8.43;7.57;;;;;;;;;;5047247;28;20266;-61
2023/05/12 01:19:34;;;;;;;8.57;7.80;;;;;;;;;;5047516;28;20208;-61
2023/05/12 01:22:02;;;;;;;9.00;8.23;;;;;;;;;;5049750;28;20200;-61
2023/05/12 01:24:31;;;;;;;9.15;8.35;;;;;;;;;;5048123;28;20199;-62
2023/05/12 01:26:59;;;;;;;10.73;9.82;;;;;;;;;;5048722;28;20314;-62
2023/05/12 01:29:27;;;;;;;8.73;7.93;;;;;;;;;;5048954;28;20195;-62
2023/05/12 01:31:55;;;;;;;9.90;8.95;;;;;;;;;;5048388;28;20208;-62
2023/05/12 01:34:22;;;;;;;9.65;8.43;;;;;;;;;;5046348;28;20200;-61
2023/05/12 01:36:49;;;;;;;10.32;8.98;;;;;;;;;;5046505;28;20211;-62
2023/05/12 01:39:16;;;;;;;9.70;8.80;;;;;;;;;;5046648;28;20204;-62
2023/05/12 01:41:43;;;;;;;9.95;9.00;;;;;;;;;;5050079;28;20192;-61
2023/05/12 01:44:12;;;;;;;9.40;8.60;;;;;;;;;;5049814;28;20210;-61
2023/05/12 01:46:39;;;;;;;10.45;9.45;;;;;;;;;;5047511;28;20207;-62
2023/05/12 01:49:06;;;;;;;10.80;9.80;;;;;;;;;;5046809;28;20207;-61
2023/05/12 01:51:33;;;;;;;11.27;10.07;;;;;;;;;;5049382;28;20226;-62
2023/05/12 01:54:00;;;;;;;10.17;9.27;;;;;;;;;;5050678;28;20195;-61
2023/05/12 01:56:27;;;;;;;10.10;9.20;;;;;;;;;;5045950;28;20207;-61
2023/05/12 01:58:54;;;;;;;10.77;9.75;;;;;;;;;;5048721;28;20196;-62
2023/05/12 02:01:27;;;;;;;11.43;10.23;;;;;;;;;;5048189;28;20211;-61
2023/05/12 02:03:54;;;;;;;10.48;9.40;;;;;;;;;;5045887;28;20258;-61
2023/05/12 02:06:21;;;;;;;10.70;9.70;;;;;;;;;;5043227;28;20234;-62
2023/05/12 02:08:48;;;;;;;10.67;9.67;;;;;;;;;;5048285;28;20203;-62
2023/05/12 02:11:16;;;;;;;10.57;9.57;;;;;;;;;;5050275;28;20219;-61
2023/05/12 02:13:44;;;;;;;11.37;10.27;;;;;;;;;;5047029;28;20208;-62
2023/05/12 02:16:11;;;;;;;10.77;9.77;;;;;;;;;;5046365;28;20242;-61
2023/05/12 02:18:39;;;;;;;10.75;9.73;;;;;;;;;;5043776;28;20211;-62
2023/05/12 02:21:07;;;;;;;11.45;10.30;;;;;;;;;;5047296;28;20205;-62
2023/05/12 02:23:34;;;;;;;10.13;9.13;;;;;;;;;;5045218;28;20203;-61
2023/05/12 02:26:01;;;;;;;10.10;9.13;;;;;;;;;;5047597;28;20210;-62
2023/05/12 02:28:28;;;;;;;12.40;11.07;;;;;;;;;;5047499;28;20203;-62
2023/05/12 02:30:55;;;;;;;10.38;9.38;;;;;;;;;;5050283;28;20204;-62
2023/05/12 02:33:23;;;;;;;11.97;10.80;;;;;;;;;;5046869;28;20223;-62
2023/05/12 02:35:51;;;;;;;13.70;11.30;;;;;;;;;;5046420;28;20199;-61
2023/05/12 02:38:18;;;;;;;11.60;10.53;;;;;;;;;;5044191;28;20195;-62
2023/05/12 02:40:47;;;;;;;11.10;10.00;;;;;;;;;;5043438;28;20208;-61
2023/05/12 02:43:14;;;;;;;8.97;8.07;;;;;;;;;;5046307;28;20203;-63
2023/05/12 02:45:41;;;;;;;9.87;8.87;;;;;;;;;;5045825;28;20212;-62
2023/05/12 02:48:08;;;;;;;10.40;9.30;;;;;;;;;;5044090;28;20207;-63
2023/05/12 02:50:35;;;;;;;8.57;7.88;;;;;;;;;;5046414;28;20201;-63
2023/05/12 02:53:04;;;;;;;9.55;8.68;;;;;;;;;;5045728;28;20218;-63
2023/05/12 02:55:31;;;;;;;10.60;9.25;;;;;;;;;;5048012;28;20196;-62
2023/05/12 02:57:58;;;;;;;9.70;8.90;;;;;;;;;;5048048;28;20246;-63
2023/05/12 03:00:25;;;;;;;10.93;9.93;;;;;;;;;;5049010;28;20211;-63
2023/05/12 03:02:52;;;;;;;11.53;10.40;;;;;;;;;;5051184;28;20203;-62
2023/05/12 03:05:19;;;;;;;11.50;10.40;;;;;;;;;;5048039;28;20204;-62
2023/05/12 03:07:48;;;;;;;11.60;10.50;;;;;;;;;;5041366;28;20214;-62
2023/05/12 03:10:17;;;;;;;10.93;9.90;;;;;;;;;;5042662;28;20199;-63
2023/05/12 03:12:44;;;;;;;10.43;9.43;;;;;;;;;;5040312;28;20222;-63
2023/05/12 03:15:11;;;;;;;10.60;9.60;;;;;;;;;;5043873;28;20235;-62
2023/05/12 03:17:39;;;;;;;10.00;9.00;;;;;;;;;;5047177;28;20207;-63
2023/05/12 03:20:06;;;;;;;10.03;9.13;;;;;;;;;;5037682;28;20273;-63
2023/05/12 03:22:34;;;;;;;10.23;9.30;;;;;;;;;;5038505;28;20203;-62
2023/05/12 03:25:02;;;;;;;11.60;10.40;;;;;;;;;;5037017;28;20203;-63
2023/05/12 03:27:31;;;;;;;10.37;9.43;;;;;;;;;;5041550;28;20200;-62
2023/05/12 03:30:00;;;;;;;10.93;9.82;;;;;;;;;;5042500;28;20218;-63
2023/05/12 03:32:27;;;;;;;11.20;10.20;;;;;;;;;;5043355;28;20211;-63
2023/05/12 03:34:54;;;;;;;11.68;10.52;;;;;;;;;;5042527;28;20222;-62
2023/05/12 03:37:21;;;;;;;10.60;9.60;;;;;;;;;;5036794;28;20215;-62
2023/05/12 03:39:48;;;;;;;9.70;8.70;;;;;;;;;;5042274;28;20195;-62
2023/05/12 03:42:15;;;;;;;11.35;10.15;;;;;;;;;;5043136;28;20208;-62
2023/05/12 03:44:44;;;;;;;10.07;9.05;;;;;;;;;;5042244;28;20212;-62
2023/05/12 03:47:11;;;;;;;11.37;10.27;;;;;;;;;;5049237;28;20206;-62
2023/05/12 03:49:38;;;;;;;10.82;9.82;;;;;;;;;;5041724;28;20207;-62
2023/05/12 03:52:06;;;;;;;12.23;11.10;;;;;;;;;;5046444;28;20234;-62
2023/05/12 03:54:33;;;;;;;12.83;11.53;;;;;;;;;;5046070;28;20218;-62
2023/05/12 03:57:00;;;;;;;10.35;9.38;;;;;;;;;;5041444;28;20212;-62
2023/05/12 03:59:27;;;;;;;12.10;10.97;;;;;;;;;;5045844;28;20211;-63
2023/05/12 04:01:55;;;;;;;10.47;9.47;;;;;;;;;;5050418;28;20203;-62
2023/05/12 04:04:23;;;;;;;13.38;12.07;;;;;;;;;;5046213;28;20191;-62
2023/05/12 04:06:50;;;;;;;12.75;11.60;;;;;;;;;;5048554;28;20207;-62
2023/05/12 04:09:17;;;;;;;13.52;12.15;;;;;;;;;;5046717;28;20206;-63
2023/05/12 04:11:44;;;;;;;11.95;10.75;;;;;;;;;;5042336;28;20227;-63
2023/05/12 04:14:11;;;;;;;11.00;9.90;;;;;;;;;;5040453;28;20208;-63
2023/05/12 04:16:39;;;;;;;10.83;9.93;;;;;;;;;;5043359;28;20247;-62
2023/05/12 04:19:07;;;;;;;10.88;9.80;;;;;;;;;;5049579;28;20200;-63
2023/05/12 04:21:35;;;;;;;11.45;10.25;;;;;;;;;;5050037;28;20210;-62
2023/05/12 04:24:02;;;;;;;11.07;10.00;;;;;;;;;;5048911;28;20195;-62
2023/05/12 04:26:29;;;;;;;13.18;11.77;;;;;;;;;;5049375;28;20207;-62
2023/05/12 04:28:56;;;;;;;10.85;9.85;;;;;;;;;;5045864;28;20206;-63
2023/05/12 04:31:23;;;;;;;10.43;9.53;;;;;;;;;;5041712;28;20201;-62
2023/05/12 04:33:50;;;;;;;9.93;9.00;;;;;;;;;;5050671;28;20192;-63
2023/05/12 04:36:19;;;;;;;10.23;9.23;;;;;;;;;;5049551;28;20207;-62
2023/05/12 04:38:46;;;;;;;10.98;9.88;;;;;;;;;;5041582;28;20255;-62
2023/05/12 04:41:13;;;;;;;9.90;8.90;;;;;;;;;;5050183;28;20200;-62
2023/05/12 04:43:40;;;;;;;10.55;9.65;;;;;;;;;;5046248;28;20195;-62
2023/05/12 04:46:07;;;;;;;9.90;9.00;;;;;;;;;;5044160;28;20203;-62
2023/05/12 04:48:40;;;;;;;11.18;10.18;;;;;;;;;;5040537;28;20204;-62
2023/05/12 04:51:07;;;;;;;10.43;9.52;;;;;;;;;;5045523;28;20222;-62
2023/05/12 04:53:36;;;;;;;10.57;9.57;;;;;;;;;;5047060;28;20223;-62
2023/05/12 04:56:03;;;;;;;11.15;10.15;;;;;;;;;;5044619;28;20211;-62
2023/05/12 04:58:30;;;;;;;10.65;9.70;;;;;;;;;;5047062;28;20196;-62
2023/05/12 05:00:57;;;;;;;11.55;10.45;;;;;;;;;;5044043;28;20200;-62
2023/05/12 05:03:24;;;;;;;10.60;9.60;;;;;;;;;;5048235;28;20211;-62
2023/05/12 05:05:51;;;;;;;11.93;9.73;;;;;;;;;;5044913;28;20200;-62
2023/05/12 05:08:18;;;;;;;11.07;10.05;;;;;;;;;;5050793;28;20207;-62
2023/05/12 05:10:47;;;;;;;11.93;9.90;;;;;;;;;;5051470;28;20208;-62
2023/05/12 05:13:15;;;;;;;11.25;10.15;;;;;;;;;;5046218;28;20224;-62
2023/05/12 05:15:49;;;;;;;10.73;9.65;;;;;;;;;;5039782;28;20235;-62
2023/05/12 05:18:16;;;;;;;12.02;10.82;;;;;;;;;;5048346;28;20203;-62
2023/05/12 05:20:44;;;;;;;10.02;9.13;;;;;;;;;;5051508;28;20204;-62
2023/05/12 05:23:11;;;;;;;9.90;9.00;;;;;;;;;;5048424;28;20204;-62
2023/05/12 05:25:38;;;;;;;10.50;9.60;;;;;;;;;;5050994;28;20218;-62
2023/05/12 05:28:07;;;;;;;11.75;10.65;;;;;;;;;;5047014;28;20195;-62
2023/05/12 05:30:34;;;;;;;10.40;9.43;;;;;;;;;;5051499;28;20375;-61
2023/05/12 05:33:01;;;;;;;10.75;9.80;;;;;;;;;;5047972;28;20220;-61
2023/05/12 05:35:28;;;;;;;11.20;10.20;;;;;;;;;;5047559;28;20199;-61
2023/05/12 05:37:55;;;;;;;10.15;9.25;;;;;;;;;;5040869;28;20230;-61
2023/05/12 05:40:23;;;;;;;11.63;10.52;;;;;;;;;;5045912;28;20259;-61
2023/05/12 05:42:50;;;;;;;11.60;10.45;;;;;;;;;;5037231;28;20269;-61
2023/05/12 05:45:18;;;;;;;10.93;9.88;;;;;;;;;;5052371;28;20211;-61
2023/05/12 05:47:48;;;;;;;11.63;10.60;;;;;;;;;;5050245;28;20204;-61
2023/05/12 05:50:15;;;;;;;11.35;10.35;;;;;;;;;;5052877;28;20207;-61
2023/05/12 05:52:43;;;;;;;12.50;11.27;;;;;;;;;;5043619;28;20233;-61
2023/05/12 05:55:10;;;;;;;12.77;11.48;;;;;;;;;;5046530;28;20245;-61
2023/05/12 05:57:37;;;;;;;11.38;10.27;;;;;;;;;;5043814;28;20206;-61
2023/05/12 06:00:04;;;;;;;12.30;11.05;;;;;;;;;;5045346;28;20203;-61
2023/05/12 06:02:33;;;;;;;12.57;11.40;;;;;;;;;;5050492;28;20200;-61
2023/05/12 06:05:00;;;;;;;11.00;9.90;;;;;;;;;;5050962;28;20204;-61
2023/05/12 06:07:27;;;;;;;11.95;10.77;;;;;;;;;;5049430;28;20235;-61
2023/05/12 06:09:55;;;;;;;12.20;11.05;;;;;;;;;;5048903;28;20284;-61
2023/05/12 06:12:22;;;;;;;11.23;10.20;;;;;;;;;;5050135;28;20227;-61
2023/05/12 06:14:49;;;;;;;12.57;11.38;;;;;;;;;;5050598;28;20207;-61
2023/05/12 06:17:17;;;;;;;11.23;10.23;;;;;;;;;;5049182;28;20230;-61
2023/05/12 06:19:48;;;;;;;11.40;10.38;;;;;;;;;;5048202;28;20301;-61
2023/05/12 06:22:15;;;;;;;11.57;10.38;;;;;;;;;;5048412;28;20309;-61
2023/05/12 06:24:42;;;;;;;9.68;8.80;;;;;;;;;;5047559;28;20207;-61
2023/05/12 06:27:09;;;;;;;11.52;10.35;;;;;;;;;;5039945;28;20212;-61
2023/05/12 06:29:36;;;;;;;11.20;10.20;;;;;;;;;;5034270;28;20210;-64
2023/05/12 06:32:03;;;;;;;10.80;9.65;;;;;;;;;;5041548;28;20207;-61
2023/05/12 06:34:31;;;;;;;11.05;10.07;;;;;;;;;;5033845;28;20207;-61
2023/05/12 06:36:59;;;;;;;10.88;9.95;;;;;;;;;;5040858;28;20202;-61
2023/05/12 06:39:26;;;;;;;11.73;10.63;;;;;;;;;;5046102;28;20215;-61
2023/05/12 06:41:53;;;;;;;10.70;9.80;;;;;;;;;;5045141;28;20210;-61
2023/05/12 06:44:20;;;;;;;11.40;10.30;;;;;;;;;;5044563;28;20203;-61
2023/05/12 06:46:48;;;;;;;10.50;9.60;;;;;;;;;;5045142;28;20212;-61
2023/05/12 06:49:15;;;;;;;11.18;10.18;;;;;;;;;;5044268;28;20204;-61
2023/05/12 06:51:42;;;;;;;11.15;10.10;;;;;;;;;;5044460;28;20211;-61
2023/05/12 06:54:11;;;;;;;10.45;9.55;;;;;;;;;;5045814;28;20219;-61
2023/05/12 06:56:38;;;;;;;10.20;9.30;;;;;;;;;;5045802;28;20259;-61
2023/05/12 06:59:05;;;;;;;11.63;10.52;;;;;;;;;;5046343;28;20230;-61
2023/05/12 07:01:33;;;;;;;9.63;8.80;;;;;;;;;;5049217;28;20203;-61
2023/05/12 07:04:00;;;;;;;10.30;9.38;;;;;;;;;;5049830;28;20199;-61
2023/05/12 07:06:27;;;;;;;8.30;7.50;;;;;;;;;;5051808;28;20218;-61
2023/05/12 07:08:55;;;;;;;8.68;7.90;;;;;;;;;;5050085;28;20290;-61
2023/05/12 07:11:23;;;;;;;10.55;9.43;;;;;;;;;;5050544;28;20203;-61
2023/05/12 07:13:51;;;;;;;8.70;7.90;;;;;;;;;;5049045;28;20314;-61
2023/05/12 07:16:18;;;;;;;8.73;7.95;;;;;;;;;;5050203;28;20254;-61
2023/05/12 07:18:46;;;;;;;8.45;7.75;;;;;;;;;;5050455;28;20210;-61
2023/05/12 07:21:13;;;;;;;9.18;8.43;;;;;;;;;;5050881;28;20222;-61
2023/05/12 07:23:40;;;;;;;7.38;6.78;;;;;;;;;;5050989;28;20207;-62
2023/05/12 07:26:08;;;;;;;7.85;7.10;;;;;;;;;;5050422;28;20214;-61
2023/05/12 07:28:37;;;;;;;8.73;7.93;;;;;;;;;;5049427;28;20218;-61
2023/05/12 07:31:04;;;;;;;9.25;8.35;;;;;;;;;;5050887;28;20211;-61
2023/05/12 07:33:31;;;;;;;6.80;6.25;;;;;;;;;;5049822;28;20219;-61
2023/05/12 07:35:58;;;;;;;7.57;6.90;;;;;;;;;;5050412;28;20199;-61
2023/05/12 07:38:25;;;;;;;7.22;6.63;;;;;;;;;;5048497;28;20207;-61
2023/05/12 07:40:53;;;;;;;9.02;8.25;;;;;;;;;;5050045;28;20214;-61
2023/05/12 07:43:20;;;;;;;10.00;9.05;;;;;;;;;;5049532;28;20206;-61
2023/05/12 07:45:49;;;;;;;8.95;8.10;;;;;;;;;;5050637;28;20222;-61
2023/05/12 07:48:16;;;;;;;9.45;8.63;;;;;;;;;;5049755;28;20204;-61
2023/05/12 07:50:43;;;;;;;8.90;7.97;;;;;;;;;;5050794;28;20210;-61
2023/05/12 07:53:10;;;;;;;8.15;7.45;;;;;;;;;;5050850;28;20219;-61
2023/05/12 07:55:37;;;;;;;7.57;6.97;;;;;;;;;;5050068;28;20211;-61
2023/05/12 07:58:04;;;;;;;7.13;6.47;;;;;;;;;;5049143;28;20199;-61
2023/05/12 08:00:31;;;;;;;6.63;6.13;;;;;;;;;;5050606;28;20211;-62
2023/05/12 08:03:00;;;;;;;7.28;6.57;;;;;;;;;;5050210;28;20216;-62
2023/05/12 08:05:27;;;;;;;6.20;5.70;;;;;;;;;;5050728;28;20207;-62
2023/05/12 08:07:54;;;;;;;6.28;5.80;;;;;;;;;;5049820;28;20199;-61
2023/05/12 08:10:25;;;;;;;6.00;5.50;;;;;;;;;;5048451;28;20211;-61
2023/05/12 08:12:52;;;;;;;6.47;5.78;;;;;;;;;;5048266;28;20285;-62
2023/05/12 08:15:19;;;;;;;6.18;5.68;;;;;;;;;;5048342;28;20239;-61
2023/05/12 08:17:46;;;;;;;6.20;5.70;;;;;;;;;;5049097;28;20236;-62
2023/05/12 08:20:15;;;;;;;6.78;6.10;;;;;;;;;;5046715;28;20215;-61
2023/05/12 08:22:43;;;;;;;5.70;5.30;;;;;;;;;;5046277;28;20208;-62
2023/05/12 08:25:10;;;;;;;4.55;4.25;;;;;;;;;;5040218;28;20207;-61
2023/05/12 08:27:37;;;;;;;5.05;4.65;;;;;;;;;;5038348;28;20207;-61
2023/05/12 08:30:04;;;;;;;4.80;4.50;;;;;;;;;;5043984;28;20214;-61
2023/05/12 08:32:32;;;;;;;4.90;4.50;;;;;;;;;;5043930;28;20215;-62
2023/05/12 08:35:01;;;;;;;4.63;4.22;;;;;;;;;;5046749;28;20219;-61
2023/05/12 08:37:29;;;;;;;4.90;4.50;;;;;;;;;;5049619;28;20208;-61
2023/05/12 08:39:57;;;;;;;4.40;4.10;;;;;;;;;;5041342;28;20238;-61
2023/05/12 08:42:30;;;;;;;4.63;4.32;;;;;;;;;;5036677;28;20207;-61
2023/05/12 08:44:57;;;;;;;4.47;4.18;;;;;;;;;;5048153;28;20206;-61
2023/05/12 08:47:25;;;;;;;4.90;4.40;;;;;;;;;;5049626;28;20214;-62
2023/05/12 08:49:59;;;;;;;5.07;4.72;;;;;;;;;;5036908;28;20211;-61
2023/05/12 08:52:26;;;;;;;5.00;4.60;;;;;;;;;;5038531;28;20211;-61
2023/05/12 08:54:55;;;;;;;5.55;5.15;;;;;;;;;;5040803;28;20239;-61
2023/05/12 08:57:23;;;;;;;6.35;5.80;;;;;;;;;;5045492;28;20245;-61
2023/05/12 08:59:50;;;;;;;6.43;5.93;;;;;;;;;;5046065;28;20238;-61
2023/05/12 09:02:21;;;;;;;5.45;4.95;;;;;;;;;;5041234;28;20203;-62
2023/05/12 09:04:48;;;;;;;5.90;5.40;;;;;;;;;;5051186;28;20199;-69
2023/05/12 09:07:16;;;;;;;5.90;5.38;;;;;;;;;;5046240;28;20203;-69
2023/05/12 09:09:47;;;;;;;4.70;4.40;;;;;;;;;;5052133;28;20238;-69
2023/05/12 09:12:17;;;;;;;4.45;4.15;;;;;;;;;;5048678;28;20207;-69
2023/05/12 09:14:47;;;;;;;4.45;4.15;;;;;;;;;;5052048;28;20227;-69
2023/05/12 09:17:14;;;;;;;4.05;3.75;;;;;;;;;;5051221;28;20207;-69
2023/05/12 09:19:43;;;;;;;3.70;3.50;;;;;;;;;;5050995;28;20214;-69
2023/05/12 09:22:13;;;;;;;3.15;2.95;;;;;;;;;;5050832;28;20207;-69
2023/05/12 09:24:45;;;;;;;3.70;3.40;;;;;;;;;;5048167;28;20199;-69
2023/05/12 09:27:13;;;;;;;3.92;3.63;;;;;;;;;;5051437;28;20200;-69
2023/05/12 09:29:50;;;;;;;3.55;3.35;;;;;;;;;;5051489;28;20208;-69
2023/05/12 09:32:21;;;;;;;3.67;3.47;;;;;;;;;;5051115;28;20222;-68
2023/05/12 09:34:52;;;;;;;3.97;3.40;;;;;;;;;;5051119;28;20216;-69
2023/05/12 09:37:22;;;;;;;3.58;3.28;;;;;;;;;;5050153;28;20206;-68
2023/05/12 09:39:59;;;;;;;3.38;3.08;;;;;;;;;;5049788;28;20203;-68
2023/05/12 09:42:29;;;;;;;3.13;2.80;;;;;;;;;;5049763;28;20207;-69
2023/05/12 09:45:01;;;;;;;2.67;2.58;;;;;;;;;;5048983;28;20218;-69
2023/05/12 09:47:29;;;;;;;3.13;2.78;;;;;;;;;;5049879;28;20210;-69
2023/05/12 09:49:56;;;;;;;2.80;2.60;;;;;;;;;;5049038;28;20261;-69
2023/05/12 09:52:24;;;;;;;3.35;2.67;;;;;;;;;;5043790;28;20214;-69
2023/05/12 09:54:52;;;;;;;2.30;2.20;;;;;;;;;;5041438;28;20292;-69
2023/05/12 09:57:25;;;;;;;2.40;2.30;;;;;;;;;;5043055;28;20206;-69
2023/05/12 09:59:53;;;;;;;2.50;2.30;;;;;;;;;;5040960;28;20257;-69
2023/05/12 10:02:23;;;;;;;3.10;2.40;;;;;;;;;;5038870;28;20246;-69
2023/05/12 10:04:51;;;;;;;2.10;2.00;;;;;;;;;;5042103;28;20199;-70
2023/05/12 10:07:22;;;;;;;2.17;2.08;;;;;;;;;;5050985;28;20261;-69
2023/05/12 10:09:51;;;;;;;2.40;2.20;;;;;;;;;;5045081;28;20199;-69
2023/05/12 10:12:18;;;;;;;1.90;1.80;;;;;;;;;;5047511;28;20204;-68
2023/05/12 10:14:46;;;;;;;2.00;1.90;;;;;;;;;;5040926;28;20219;-67
2023/05/12 10:17:14;;;;;;;1.80;1.70;;;;;;;;;;5049142;28;20211;-68
2023/05/12 10:19:43;;;;;;;2.00;1.90;;;;;;;;;;5047472;28;20203;-67
2023/05/12 10:22:11;;;;;;;2.95;1.90;;;;;;;;;;5042276;28;20203;-67
2023/05/12 10:24:39;;;;;;;1.90;1.80;;;;;;;;;;5043055;28;20195;-68
2023/05/12 10:27:08;;;;;;;1.80;1.70;;;;;;;;;;5043929;28;20203;-67
2023/05/12 10:29:36;;;;;;;1.63;1.52;;;;;;;;;;5050788;28;20210;-67
2023/05/12 10:32:05;;;;;;;1.77;1.33;;;;;;;;;;5048020;28;20212;-68
2023/05/12 10:34:35;;;;;;;1.10;1.10;;;;;;;;;;5042287;28;20227;-68
2023/05/12 10:37:07;;;;;;;1.02;0.93;;;;;;;;;;5030933;28;20199;-68
2023/05/12 10:39:36;;;;;;;0.75;0.75;;;;;;;;;;5041156;28;20207;-68
2023/05/12 10:42:07;;;;;;;0.90;0.90;;;;;;;;;;5045630;28;20204;-68
2023/05/12 10:44:36;;;;;;;0.70;0.70;;;;;;;;;;5045287;28;20206;-69
2023/05/12 10:47:03;;;;;;;0.95;0.95;;;;;;;;;;5048460;28;20257;-68
2023/05/12 10:49:36;;;;;;;1.00;1.00;;;;;;;;;;5050901;28;20257;-69
2023/05/12 10:52:07;;;;;;;0.80;0.80;;;;;;;;;;5051132;28;20262;-68
2023/05/12 10:54:46;;;;;;;0.88;0.88;;;;;;;;;;5037563;28;20227;-68
2023/05/12 10:57:14;;;;;;;1.90;0.93;;;;;;;;;;5046961;28;20237;-68
2023/05/12 10:59:48;;;;;;;0.80;0.80;;;;;;;;;;5046462;28;20207;-68
2023/05/12 11:02:17;;;;;;;1.77;1.13;;;;;;;;;;5040115;28;20207;-68
2023/05/12 11:04:47;;;;;;;1.23;0.90;;;;;;;;;;5046790;28;20223;-68
2023/05/12 11:07:25;;;;;;;0.90;0.90;;;;;;;;;;5044278;28;20205;-68
2023/05/12 11:09:53;;;;;;;1.17;1.10;;;;;;;;;;5037166;28;20203;-68
2023/05/12 11:12:21;;;;;;;1.00;1.00;;;;;;;;;;5040433;28;20215;-68
2023/05/12 11:14:48;;;;;;;1.05;1.05;;;;;;;;;;5043426;28;20226;-67
2023/05/12 11:17:16;;;;;;;1.00;1.00;;;;;;;;;;5037876;28;20204;-68
2023/05/12 11:19:45;;;;;;;1.10;1.10;;;;;;;;;;5043107;28;20218;-69
2023/05/12 11:22:13;;;;;;;1.38;1.30;;;;;;;;;;5045589;28;20218;-70
2023/05/12 11:24:42;;;;;;;1.35;1.25;;;;;;;;;;5045969;28;20310;-69
2023/05/12 11:27:13;;;;;;;1.58;1.27;;;;;;;;;;5047781;28;20206;-68
2023/05/12 11:29:40;;;;;;;1.60;1.40;;;;;;;;;;5043928;28;20211;-68
2023/05/12 11:32:09;;;;;;;1.85;1.48;;;;;;;;;;5040295;28;20318;-69
2023/05/12 11:34:36;;;;;;;2.65;1.40;;;;;;;;;;5041557;28;20223;-69
2023/05/12 11:37:05;;;;;;;2.08;1.40;;;;;;;;;;5042068;28;20199;-68
2023/05/12 11:39:32;;;;;;;1.77;1.60;;;;;;;;;;5041777;28;20227;-69
2023/05/12 11:42:04;;;;;;;3.17;1.67;;;;;;;;;;5045995;28;20207;-69
2023/05/12 11:44:31;;;;;;;2.70;1.63;;;;;;;;;;5042817;28;20203;-68
2023/05/12 11:47:00;;;;;;;1.73;1.63;;;;;;;;;;5048847;28;20199;-68
2023/05/12 11:49:27;;;;;;;1.90;1.80;;;;;;;;;;5045791;28;20231;-68
2023/05/12 11:51:55;;;;;;;3.08;1.90;;;;;;;;;;5040460;28;20253;-68
2023/05/12 11:54:23;;;;;;;1.90;1.80;;;;;;;;;;5041782;28;20234;-69
2023/05/12 11:56:51;;;;;;;1.90;1.80;;;;;;;;;;5046197;28;20227;-68
2023/05/12 11:59:30;;;;;;;2.03;1.92;;;;;;;;;;5045018;28;20203;-69
2023/05/12 12:01:57;;;;;;;1.85;1.70;;;;;;;;;;5044611;28;20230;-69
2023/05/12 12:04:34;;;;;;;2.00;1.90;;;;;;;;;;5047679;28;20210;-68
2023/05/12 12:07:01;;;;;;;2.33;2.00;;;;;;;;;;5046784;28;20203;-68
2023/05/12 12:09:32;;;;;;;2.00;1.90;;;;;;;;;;5048811;28;20199;-68
2023/05/12 12:11:59;;;;;;;2.67;2.10;;;;;;;;;;5052544;28;20253;-69
2023/05/12 12:14:26;;;;;;;3.10;2.33;;;;;;;;;;5050693;28;20224;-69
2023/05/12 12:16:55;;;;;;;2.03;1.88;;;;;;;;;;5056358;28;20239;-68
2023/05/12 12:19:22;;;;;;;2.20;2.10;;;;;;;;;;5054128;28;20202;-68
2023/05/12 12:21:49;;;;;;;3.15;2.35;;;;;;;;;;5050209;28;20207;-67
2023/05/12 12:24:17;;;;;;;2.13;2.03;;;;;;;;;;5054772;28;20205;-67
2023/05/12 12:26:44;;;;;;;2.40;2.20;;;;;;;;;;5051202;28;20262;-68
2023/05/12 12:29:11;;;;;;;3.55;1.90;;;;;;;;;;5051224;28;20210;-67
2023/05/12 12:31:38;;;;;;;2.60;2.13;;;;;;;;;;5049255;28;20215;-67
2023/05/12 12:34:07;;;;;;;2.45;1.90;;;;;;;;;;5050130;28;20196;-67
2023/05/12 12:36:34;;;;;;;4.45;1.98;;;;;;;;;;5047423;28;20207;-68
2023/05/12 12:39:01;;;;;;;2.30;2.10;;;;;;;;;;5049178;28;20264;-68
2023/05/12 12:41:28;;;;;;;2.00;1.90;;;;;;;;;;5049849;28;20215;-68
2023/05/12 12:43:55;;;;;;;1.98;1.88;;;;;;;;;;5047783;28;20215;-67
2023/05/12 12:46:22;;;;;;;1.67;1.58;;;;;;;;;;5051569;28;20204;-67
2023/05/12 12:48:50;;;;;;;1.92;1.80;;;;;;;;;;5052687;28;20207;-67
2023/05/12 12:51:18;;;;;;;1.75;1.70;;;;;;;;;;5041567;28;20235;-68
2023/05/12 12:53:45;;;;;;;1.80;1.70;;;;;;;;;;5047202;28;20223;-67
2023/05/12 12:56:12;;;;;;;1.83;1.73;;;;;;;;;;5047950;28;20309;-68
2023/05/12 12:58:40;;;;;;;1.80;1.70;;;;;;;;;;5048544;28;20203;-67
2023/05/12 13:01:07;;;;;;;1.83;1.73;;;;;;;;;;5052037;28;20290;-67
2023/05/12 13:03:34;;;;;;;1.48;1.40;;;;;;;;;;5051011;28;20212;-67
2023/05/12 13:06:02;;;;;;;2.60;1.88;;;;;;;;;;5051354;28;20204;-67
2023/05/12 13:08:30;;;;;;;1.80;1.70;;;;;;;;;;5047858;28;20233;-67
2023/05/12 13:10:57;;;;;;;2.35;1.80;;;;;;;;;;5050445;28;20207;-67
2023/05/12 13:13:24;;;;;;;1.73;1.63;;;;;;;;;;5051506;28;20207;-67
2023/05/12 13:15:52;;;;;;;1.75;1.60;;;;;;;;;;5040083;28;20259;-67
2023/05/12 13:18:20;;;;;;;2.17;1.80;;;;;;;;;;5039472;28;20203;-68
2023/05/12 13:20:47;;;;;;;2.72;1.77;;;;;;;;;;5048322;28;20195;-60
2023/05/12 13:23:14;;;;;;;2.17;1.77;;;;;;;;;;5047549;28;20206;-60
2023/05/12 13:25:43;;;;;;;2.10;2.00;;;;;;;;;;5044095;28;20200;-60
2023/05/12 13:28:11;;;;;;;1.60;1.50;;;;;;;;;;5043366;28;20203;-60
2023/05/12 13:30:38;;;;;;;3.20;2.03;;;;;;;;;;5047865;28;20209;-59
2023/05/12 13:33:05;;;;;;;1.58;1.48;;;;;;;;;;5047742;28;20214;-60
2023/05/12 13:35:32;;;;;;;1.90;1.70;;;;;;;;;;5047060;28;20250;-60
2023/05/12 13:37:59;;;;;;;2.08;1.92;;;;;;;;;;5046347;28;20203;-60
2023/05/12 13:40:26;;;;;;;1.90;1.80;;;;;;;;;;5049908;28;20218;-59
2023/05/12 13:42:55;;;;;;;1.92;1.80;;;;;;;;;;5048712;28;20206;-60
2023/05/12 13:45:22;;;;;;;4.20;1.90;;;;;;;;;;5043752;28;20202;-60
2023/05/12 13:47:49;;;;;;;1.80;1.70;;;;;;;;;;5042343;28;20203;-61
2023/05/12 13:50:16;;;;;;;2.10;1.90;;;;;;;;;;5043709;28;20219;-60
2023/05/12 13:52:43;;;;;;;5.82;2.50;;;;;;;;;;5047326;28;20203;-60
2023/05/12 13:55:10;;;;;;;2.17;2.08;;;;;;;;;;5037668;28;20238;-60
2023/05/12 13:57:37;;;;;;;2.95;2.03;;;;;;;;;;5043623;28;20243;-61
2023/05/12 14:00:07;;;;;;;2.55;2.33;;;;;;;;;;5047996;28;20203;-60
2023/05/12 14:02:34;;;;;;;4.57;2.17;;;;;;;;;;5047668;28;20216;-60
2023/05/12 14:05:02;;;;;;;1.77;1.67;;;;;;;;;;5050900;28;20195;-60
2023/05/12 14:07:29;;;;;;;2.88;2.10;;;;;;;;;;5049612;28;20202;-60
2023/05/12 14:09:56;;;;;;;2.38;2.28;;;;;;;;;;5048412;28;20219;-59
2023/05/12 14:12:24;;;;;;;3.35;2.45;;;;;;;;;;5050979;28;20209;-60
2023/05/12 14:14:51;;;;;;;2.38;2.20;;;;;;;;;;5042123;28;20232;-60
2023/05/12 14:17:20;;;;;;;2.47;2.28;;;;;;;;;;5044612;28;20207;-61
2023/05/12 14:19:47;;;;;;;2.88;2.55;;;;;;;;;;5043223;28;20207;-60
2023/05/12 14:22:14;;;;;;;2.80;2.40;;;;;;;;;;5041907;28;20204;-60
2023/05/12 14:24:41;;;;;;;3.65;2.08;;;;;;;;;;5048286;28;20200;-60
2023/05/12 14:27:08;;;;;;;2.42;2.13;;;;;;;;;;5045983;28;20269;-59
2023/05/12 14:29:35;;;;;;;2.30;2.20;;;;;;;;;;5045534;28;20214;-59
2023/05/12 14:32:03;;;;;;;2.00;1.90;;;;;;;;;;5043918;28;20195;-60
2023/05/12 14:34:32;;;;;;;2.78;2.55;;;;;;;;;;5047526;28;20204;-60
2023/05/12 14:36:59;;;;;;;3.72;2.42;;;;;;;;;;5046876;28;20229;-60
2023/05/12 14:39:26;;;;;;;2.50;2.30;;;;;;;;;;5043958;28;20207;-60